Time;durP1;ratioP1;P1;durP2;ratioP2;P2;SDS_P1;SDS_P2;PMS_P1;PMS_P2;Temp;Humidity;BMP_temperature;BMP_pressure;BME280_temperature;BME280_humidity;BME280_pressure;Samples;Min_cycle;Max_cycle;Signal;HPM_P1;HPM_P2
2022/11/15 03:00:48;;;;;;;17.07;15.87;;;5.70;99.90;;;;;;5920750;23;20188;-80
2022/11/15 03:03:57;;;;;;;17.63;16.23;;;5.70;99.90;;;;;;4915052;29;20219;-81
2022/11/15 03:06:46;;;;;;;17.67;16.10;;;5.70;99.90;;;;;;4916327;29;20203;-82
2022/11/15 03:09:36;;;;;;;16.93;15.50;;;5.60;99.90;;;;;;4916559;29;20240;-82
2022/11/15 03:12:28;;;;;;;17.07;15.77;;;5.60;99.90;;;;;;4915499;29;20268;-81
2022/11/15 03:15:22;;;;;;;17.87;16.40;;;5.50;99.90;;;;;;4935682;23;20480;-84
2022/11/15 03:18:17;;;;;;;17.60;16.23;;;5.40;99.90;;;;;;4916787;29;20222;-84
2022/11/15 03:21:07;;;;;;;17.27;15.87;;;5.40;99.90;;;;;;4916657;29;20372;-84
2022/11/15 03:23:53;;;;;;;17.30;15.90;;;5.40;99.90;;;;;;4911958;29;20231;-84
2022/11/15 03:26:42;;;;;;;17.23;15.90;;;5.40;99.90;;;;;;4894386;29;20226;-84
2022/11/15 03:29:31;;;;;;;18.73;17.33;;;5.40;99.90;;;;;;4892224;29;20260;-83
2022/11/15 03:32:20;;;;;;;18.23;16.83;;;5.50;99.90;;;;;;4900469;29;20687;-84
2022/11/15 03:35:09;;;;;;;17.80;16.40;;;5.60;99.90;;;;;;4900085;29;20228;-84
2022/11/15 03:37:59;;;;;;;18.00;16.50;;;5.60;99.90;;;;;;4896516;29;20244;-84
2022/11/15 03:40:54;;;;;;;17.70;16.40;;;5.60;99.90;;;;;;4895319;29;20208;-84
2022/11/15 03:43:46;;;;;;;17.30;16.00;;;5.60;99.90;;;;;;4892395;29;20358;-84
2022/11/15 03:46:38;;;;;;;18.13;16.53;;;5.60;99.90;;;;;;4892179;29;20294;-84
2022/11/15 03:49:28;;;;;;;17.83;16.53;;;5.60;99.90;;;;;;4897998;29;20212;-83
2022/11/15 03:52:19;;;;;;;18.23;16.90;;;5.60;99.90;;;;;;4897849;29;20212;-85
2022/11/15 03:55:07;;;;;;;17.67;16.37;;;5.50;99.90;;;;;;4915496;29;20287;-85
2022/11/15 03:57:57;;;;;;;17.77;16.47;;;5.50;99.90;;;;;;4907160;29;20212;-85
2022/11/15 04:00:42;;;;;;;18.93;17.43;;;5.40;99.90;;;;;;4897946;29;20261;-85
2022/11/15 04:03:28;;;;;;;18.40;17.00;;;5.40;99.90;;;;;;4895961;29;20210;-85
2022/11/15 04:06:13;;;;;;;18.40;17.00;;;5.30;99.90;;;;;;4910344;29;20226;-84
2022/11/15 04:09:00;;;;;;;18.27;16.87;;;5.30;99.90;;;;;;4909188;29;20634;-86
2022/11/15 04:11:45;;;;;;;18.57;17.17;;;5.30;99.90;;;;;;4912898;29;20207;-85
2022/11/15 04:14:31;;;;;;;19.17;17.83;;;5.20;99.90;;;;;;4908694;29;20235;-86
2022/11/15 04:17:17;;;;;;;18.33;16.97;;;5.20;99.90;;;;;;4903155;29;20216;-85
2022/11/15 04:26:19;;;;;;;20.13;18.33;;;5.10;99.90;;;;;;4902875;29;20251;-82
2022/11/15 04:32:08;;;;;;;19.80;18.03;;;5.00;99.90;;;;;;4902841;29;20223;-83
2022/11/15 04:34:53;;;;;;;19.13;17.60;;;4.90;99.90;;;;;;4902907;29;20256;-85
2022/11/15 04:37:39;;;;;;;19.40;17.90;;;4.90;99.90;;;;;;4903680;29;20638;-86
2022/11/15 04:40:24;;;;;;;18.07;16.67;;;4.90;99.90;;;;;;4904769;29;20225;-83
2022/11/15 04:43:11;;;;;;;19.33;17.83;;;4.90;99.90;;;;;;4905206;29;20700;-84
2022/11/15 04:45:57;;;;;;;19.50;18.00;;;4.90;99.90;;;;;;4905675;29;20776;-84
2022/11/15 04:48:42;;;;;;;19.27;17.87;;;5.00;99.90;;;;;;4899326;29;20297;-85
2022/11/15 04:51:28;;;;;;;19.20;17.80;;;4.90;99.90;;;;;;4895862;29;20735;-83
2022/11/15 04:54:13;;;;;;;19.00;17.60;;;5.00;99.90;;;;;;4902328;29;20326;-82
2022/11/15 04:56:59;;;;;;;18.83;17.43;;;5.00;99.90;;;;;;4901487;29;20345;-82
2022/11/15 04:59:46;;;;;;;18.67;17.37;;;4.90;99.90;;;;;;4895604;29;20825;-84
2022/11/15 05:05:31;;;;;;;19.70;18.10;;;4.90;99.90;;;;;;4895758;29;20651;-84
2022/11/15 05:08:17;;;;;;;19.80;18.20;;;4.80;99.90;;;;;;4902644;29;20214;-83
2022/11/15 05:11:02;;;;;;;20.20;18.60;;;4.80;99.90;;;;;;4902941;29;20212;-84
2022/11/15 05:13:48;;;;;;;19.80;18.30;;;4.80;99.90;;;;;;4903004;29;20588;-83
2022/11/15 05:16:35;;;;;;;18.83;17.47;;;4.80;99.90;;;;;;4903240;29;20226;-83
2022/11/15 05:19:21;;;;;;;19.33;17.73;;;4.90;99.90;;;;;;4903598;29;20231;-83
2022/11/15 05:22:06;;;;;;;18.33;17.13;;;5.00;99.90;;;;;;4902876;29;20215;-83
2022/11/15 05:24:52;;;;;;;18.70;17.40;;;5.00;99.90;;;;;;4902898;29;20235;-83
2022/11/15 05:27:37;;;;;;;19.97;18.37;;;5.00;99.90;;;;;;4896802;29;20215;-84
2022/11/15 05:30:23;;;;;;;21.13;19.53;;;5.00;99.90;;;;;;4902333;29;20332;-84
2022/11/15 05:33:10;;;;;;;20.33;18.77;;;5.20;99.90;;;;;;4902715;29;20216;-83
2022/11/15 05:36:00;;;;;;;19.70;18.30;;;5.20;99.90;;;;;;4901397;29;20698;-83
2022/11/15 05:38:47;;;;;;;20.00;18.63;;;5.30;99.90;;;;;;4895467;29;20223;-84
2022/11/15 05:41:34;;;;;;;19.27;17.87;;;5.30;99.90;;;;;;4893043;29;20708;-83
2022/11/15 05:44:22;;;;;;;20.67;18.87;;;5.40;99.90;;;;;;4899562;29;20231;-83
2022/11/15 05:47:11;;;;;;;20.47;19.00;;;5.40;99.90;;;;;;4900130;29;20203;-83
2022/11/15 05:49:58;;;;;;;20.73;19.17;;;5.40;99.90;;;;;;4899901;29;20639;-84
2022/11/15 05:52:44;;;;;;;21.90;20.20;;;5.40;99.90;;;;;;4896001;29;20291;-83
2022/11/15 05:55:29;;;;;;;20.90;19.30;;;5.40;99.90;;;;;;4891857;29;20359;-84
2022/11/15 05:58:15;;;;;;;20.77;19.13;;;5.40;99.90;;;;;;4899507;29;20284;-83
2022/11/15 06:01:01;;;;;;;21.23;19.63;;;5.40;99.90;;;;;;4899344;29;20239;-83
2022/11/15 06:03:46;;;;;;;21.77;20.07;;;5.30;99.90;;;;;;4900156;29;20322;-83
2022/11/15 06:06:33;;;;;;;20.43;18.93;;;5.30;99.90;;;;;;4893488;29;20204;-84
2022/11/15 06:09:19;;;;;;;20.63;19.20;;;5.30;99.90;;;;;;4900332;29;20696;-83
2022/11/15 06:12:05;;;;;;;20.97;19.40;;;5.20;99.90;;;;;;4899956;29;20618;-83
2022/11/15 06:14:50;;;;;;;21.57;19.97;;;5.20;99.90;;;;;;4901315;29;20296;-82
2022/11/15 06:17:35;;;;;;;21.23;19.63;;;5.10;99.90;;;;;;4899184;29;20704;-83
2022/11/15 06:20:22;;;;;;;21.60;20.00;;;5.10;99.90;;;;;;4898994;29;20684;-83
2022/11/15 06:23:08;;;;;;;22.13;20.33;;;5.10;99.90;;;;;;4899004;29;20340;-83
2022/11/15 06:25:53;;;;;;;21.27;19.77;;;5.10;99.90;;;;;;4899865;29;20227;-83
2022/11/15 06:28:39;;;;;;;21.90;20.13;;;5.10;99.90;;;;;;4893541;29;20212;-83
2022/11/15 06:31:25;;;;;;;21.03;19.43;;;5.10;99.90;;;;;;4898420;29;20264;-83
2022/11/15 06:34:10;;;;;;;21.43;19.83;;;5.10;99.90;;;;;;4899085;29;20243;-84
2022/11/15 06:36:55;;;;;;;21.30;19.73;;;5.10;99.90;;;;;;4899313;29;20329;-82
2022/11/15 06:39:42;;;;;;;21.00;19.40;;;5.10;99.90;;;;;;4894480;29;20613;-83
2022/11/15 06:42:28;;;;;;;21.10;19.60;;;5.20;99.90;;;;;;4892661;29;20215;-83
2022/11/15 06:45:13;;;;;;;21.97;20.20;;;5.20;99.90;;;;;;4900529;29;20231;-84
2022/11/15 06:47:59;;;;;;;20.90;19.40;;;5.30;99.90;;;;;;4899801;29;20295;-83
2022/11/15 06:50:51;;;;;;;21.20;19.70;;;5.30;99.90;;;;;;4893224;29;20215;-83
2022/11/15 06:53:37;;;;;;;21.03;19.33;;;5.40;99.90;;;;;;4892599;29;20219;-83
2022/11/15 06:56:24;;;;;;;21.23;19.63;;;5.50;99.90;;;;;;4901425;29;20239;-84
2022/11/15 06:59:09;;;;;;;20.27;18.87;;;5.60;99.90;;;;;;4901497;29;20204;-83
2022/11/15 07:01:55;;;;;;;21.07;19.47;;;5.70;99.90;;;;;;4899413;29;20748;-84
2022/11/15 07:04:40;;;;;;;20.60;19.20;;;5.70;99.90;;;;;;4893286;29;20300;-83
2022/11/15 07:07:26;;;;;;;20.50;19.00;;;5.80;99.90;;;;;;4899077;29;20207;-83
2022/11/15 07:10:11;;;;;;;19.70;18.30;;;5.90;99.90;;;;;;4899061;29;20211;-84
2022/11/15 07:12:58;;;;;;;21.63;19.93;;;5.90;99.90;;;;;;4899447;29;20222;-84
2022/11/15 07:15:44;;;;;;;21.53;19.93;;;6.00;99.90;;;;;;4894303;29;20275;-84
2022/11/15 07:18:29;;;;;;;21.40;19.90;;;6.10;99.90;;;;;;4901558;29;20729;-84
2022/11/15 07:21:15;;;;;;;20.97;19.37;;;6.20;99.90;;;;;;4901662;29;20209;-83
2022/11/15 07:24:00;;;;;;;20.93;19.33;;;6.30;99.90;;;;;;4902784;29;20236;-84
2022/11/15 07:26:46;;;;;;;20.07;18.47;;;6.50;99.90;;;;;;4898106;29;20260;-84
2022/11/15 07:29:33;;;;;;;20.23;18.73;;;6.60;99.90;;;;;;4893846;29;20211;-83
2022/11/15 07:32:18;;;;;;;18.90;17.60;;;6.70;99.90;;;;;;4901776;29;20211;-84
2022/11/15 07:35:04;;;;;;;20.20;18.67;;;6.80;99.90;;;;;;4903117;29;20728;-86
2022/11/15 07:37:57;;;;;;;18.43;17.10;;;7.00;99.90;;;;;;4902180;29;20210;-87
2022/11/15 07:40:43;;;;;;;19.40;17.93;;;7.00;99.90;;;;;;4899951;29;20214;-80
2022/11/15 07:43:29;;;;;;;18.47;17.17;;;7.10;99.90;;;;;;4906008;29;20224;-80
2022/11/15 07:46:16;;;;;;;18.53;17.13;;;7.20;99.90;;;;;;4907225;29;20209;-84
2022/11/15 07:49:01;;;;;;;19.87;18.37;;;7.30;99.90;;;;;;4900314;29;20244;-87
2022/11/15 07:51:47;;;;;;;18.60;17.10;;;7.50;99.90;;;;;;4900974;29;20718;-82
2022/11/15 07:54:33;;;;;;;18.73;17.23;;;7.80;99.90;;;;;;4900836;29;20597;-85
2022/11/15 07:57:19;;;;;;;19.30;18.00;;;8.00;99.90;;;;;;4901339;29;20227;-88
2022/11/15 08:00:06;;;;;;;15.20;14.13;;;8.30;99.90;;;;;;4902055;29;20219;-85
2022/11/15 08:02:53;;;;;;;8.50;7.60;;;8.50;99.90;;;;;;4897926;29;20208;-87
2022/11/15 08:05:40;;;;;;;9.70;7.40;;;8.60;99.90;;;;;;4901222;29;20235;-83
2022/11/15 08:08:26;;;;;;;17.23;15.93;;;8.60;99.90;;;;;;4904191;29;20291;-85
2022/11/15 08:11:11;;;;;;;16.40;15.20;;;8.60;99.90;;;;;;4905001;29;20267;-85
2022/11/15 08:13:57;;;;;;;11.70;10.77;;;8.60;99.90;;;;;;4904834;29;20727;-86
2022/11/15 08:16:42;;;;;;;9.53;8.63;;;8.60;99.90;;;;;;4892007;29;20228;-86
2022/11/15 08:19:29;;;;;;;17.10;15.80;;;8.70;99.90;;;;;;4895706;29;20235;-86
2022/11/15 08:22:15;;;;;;;16.23;15.07;;;8.70;99.90;;;;;;4903127;29;20252;-85
2022/11/15 08:25:01;;;;;;;15.90;14.77;;;8.70;99.90;;;;;;4903582;29;20287;-84
2022/11/15 08:27:47;;;;;;;16.30;15.10;;;8.60;99.90;;;;;;4898289;29;20731;-85
2022/11/15 08:30:37;;;;;;;16.20;15.00;;;8.70;99.90;;;;;;4895593;29;20696;-85
2022/11/15 08:33:22;;;;;;;15.33;14.20;;;8.60;99.90;;;;;;4903058;29;20584;-85
2022/11/15 08:36:13;;;;;;;15.03;14.00;;;8.60;99.90;;;;;;4900960;29;20276;-85
2022/11/15 08:38:59;;;;;;;15.93;14.83;;;8.60;99.90;;;;;;4904309;29;20215;-85
2022/11/15 08:41:45;;;;;;;15.27;14.27;;;8.80;99.90;;;;;;4897831;29;20709;-84
2022/11/15 08:44:30;;;;;;;15.47;14.27;;;8.80;99.90;;;;;;4902891;29;20317;-86
2022/11/15 08:47:16;;;;;;;15.20;14.10;;;8.90;99.90;;;;;;4903592;29;20211;-85
2022/11/15 08:50:02;;;;;;;15.23;14.13;;;9.00;99.90;;;;;;4902245;29;20207;-86
2022/11/15 08:52:49;;;;;;;14.67;13.67;;;9.00;99.90;;;;;;4904404;29;20267;-84
2022/11/15 08:55:37;;;;;;;15.37;14.27;;;9.10;99.90;;;;;;4899762;29;20724;-85
2022/11/15 08:58:23;;;;;;;14.77;13.77;;;9.10;99.90;;;;;;4902790;29;20593;-86
2022/11/15 09:01:16;;;;;;;14.90;13.90;;;9.30;99.90;;;;;;4901208;29;20312;-87
2022/11/15 09:04:03;;;;;;;15.13;14.07;;;9.30;99.90;;;;;;4899536;29;20236;-86
2022/11/15 09:06:49;;;;;;;6.93;6.23;;;9.40;99.90;;;;;;4899650;29;20211;-84
2022/11/15 09:09:36;;;;;;;8.03;7.33;;;9.60;99.90;;;;;;4893082;29;20215;-84
2022/11/15 09:12:21;;;;;;;7.13;6.37;;;9.70;99.90;;;;;;4899751;29;20206;-85
2022/11/15 09:15:08;;;;;;;6.90;5.93;;;9.80;99.90;;;;;;4902218;29;20279;-83
2022/11/15 09:17:54;;;;;;;10.63;9.77;;;9.90;99.90;;;;;;4900677;29;20227;-84
2022/11/15 09:20:39;;;;;;;6.47;5.73;;;10.00;99.90;;;;;;4893546;29;20222;-83
2022/11/15 09:23:26;;;;;;;9.80;9.10;;;10.10;99.90;;;;;;4893577;29;20212;-85
2022/11/15 09:26:13;;;;;;;7.43;6.73;;;10.20;99.90;;;;;;4898067;29;20284;-85
2022/11/15 09:28:59;;;;;;;7.50;6.80;;;10.30;99.90;;;;;;4898400;29;20357;-86
2022/11/15 09:31:44;;;;;;;6.73;6.03;;;10.40;99.90;;;;;;4898141;29;20228;-86
2022/11/15 09:34:30;;;;;;;9.47;8.53;;;10.50;99.90;;;;;;4891261;29;20235;-85
2022/11/15 09:37:16;;;;;;;15.37;14.17;;;10.50;99.90;;;;;;4897274;29;20321;-85
2022/11/15 09:40:01;;;;;;;11.60;10.70;;;10.50;99.90;;;;;;4898036;29;20211;-86
2022/11/15 09:43:02;;;;;;;11.40;10.50;;;10.50;99.90;;;;;;4897996;29;20208;-85
2022/11/15 09:45:58;;;;;;;7.07;6.23;;;10.60;99.90;;;;;;4898026;29;20728;-86
2022/11/15 09:48:53;;;;;;;15.27;14.17;;;10.70;99.90;;;;;;4896648;29;20247;-85
2022/11/15 09:51:47;;;;;;;13.77;12.67;;;10.80;99.90;;;;;;4896374;29;20205;-86
2022/11/15 09:54:26;;;;;;;16.53;15.20;;;11.00;99.90;;;;;;4897037;29;20225;-85
2022/11/15 09:56:56;;;;;;;16.70;15.33;;;11.20;99.90;;;;;;4897791;29;20228;-84
2022/11/15 09:59:54;;;;;;;8.83;8.03;;;11.30;99.90;;;;;;4899008;29;20221;-86
2022/11/15 10:02:37;;;;;;;8.77;7.97;;;11.50;99.90;;;;;;4913907;29;20253;-84
2022/11/15 10:05:05;;;;;;;15.10;14.00;;;11.60;99.90;;;;;;4901053;29;20235;-84
2022/11/15 10:07:39;;;;;;;15.43;14.33;;;11.70;99.90;;;;;;4900702;29;20578;-84
2022/11/15 10:10:15;;;;;;;15.53;14.33;;;11.80;99.90;;;;;;4901693;29;20206;-84
2022/11/15 10:12:48;;;;;;;13.50;12.40;;;11.90;99.90;;;;;;4900329;29;20206;-83
2022/11/15 10:15:22;;;;;;;10.10;9.20;;;11.90;99.90;;;;;;4897893;29;20242;-83
2022/11/15 10:18:15;;;;;;;11.47;10.47;;;11.90;99.90;;;;;;4899174;29;20258;-85
2022/11/15 10:20:50;;;;;;;11.60;10.70;;;11.90;99.90;;;;;;4903191;29;20215;-85
2022/11/15 10:23:19;;;;;;;10.97;10.07;;;11.80;99.90;;;;;;4895100;29;20211;-85
2022/11/15 10:25:47;;;;;;;7.63;6.93;;;11.80;99.90;;;;;;4890334;29;20463;-85
2022/11/15 10:28:17;;;;;;;5.77;5.27;;;12.00;99.90;;;;;;4896354;29;20208;-85
2022/11/15 10:30:47;;;;;;;7.90;7.20;;;12.10;99.90;;;;;;4897283;29;20204;-85
2022/11/15 10:33:33;;;;;;;5.50;5.00;;;12.20;99.90;;;;;;4897890;29;20201;-85
2022/11/15 10:36:24;;;;;;;10.80;10.00;;;12.30;99.90;;;;;;4892765;29;20228;-85
2022/11/15 10:38:56;;;;;;;14.10;12.97;;;12.30;99.90;;;;;;4908840;29;20200;-85
2022/11/15 10:41:30;;;;;;;6.07;5.47;;;12.50;99.90;;;;;;4897587;29;20204;-85
2022/11/15 10:44:23;;;;;;;14.27;13.27;;;12.50;99.90;;;;;;4896066;29;20224;-85
2022/11/15 10:47:17;;;;;;;15.13;13.83;;;12.60;99.90;;;;;;4892880;29;20203;-85
2022/11/15 10:49:55;;;;;;;7.13;5.65;;;12.60;99.90;;;;;;4895627;29;20451;-85
2022/11/15 10:52:22;;;;;;;5.93;5.20;;;12.50;99.90;;;;;;4896030;29;20288;-85
2022/11/15 10:54:53;;;;;;;14.57;13.67;;;12.50;99.90;;;;;;4896020;29;20297;-85
2022/11/15 10:57:22;;;;;;;12.73;11.83;;;12.50;99.90;;;;;;4897141;29;20217;-84
2022/11/15 10:59:51;;;;;;;11.97;11.03;;;12.50;99.90;;;;;;4895635;29;20212;-85
2022/11/15 11:02:32;;;;;;;10.77;9.80;;;12.50;99.90;;;;;;4897264;29;20214;-85
2022/11/15 11:05:00;;;;;;;10.67;9.90;;;12.60;99.90;;;;;;4892696;29;20381;-85
2022/11/15 11:07:29;;;;;;;14.23;13.23;;;12.60;99.90;;;;;;4893596;29;20197;-85
2022/11/15 11:10:03;;;;;;;8.33;7.67;;;12.50;99.90;;;;;;4896952;29;20201;-85
2022/11/15 11:12:32;;;;;;;6.90;6.27;;;12.50;99.90;;;;;;4901265;29;20201;-85
2022/11/15 11:15:01;;;;;;;6.47;5.87;;;12.50;99.90;;;;;;4899832;29;20236;-85
2022/11/15 11:17:44;;;;;;;5.57;5.07;;;12.50;99.90;;;;;;4901009;29;20239;-85
2022/11/15 11:20:21;;;;;;;6.03;5.43;;;12.50;99.90;;;;;;4899407;29;20209;-85
2022/11/15 11:23:01;;;;;;;11.53;10.73;;;12.50;99.90;;;;;;4899518;29;20212;-85
2022/11/15 11:25:35;;;;;;;5.73;5.23;;;12.50;99.90;;;;;;4897860;29;20289;-85
2022/11/15 11:28:23;;;;;;;11.13;10.27;;;12.50;99.90;;;;;;4897892;29;20211;-85
2022/11/15 11:31:01;;;;;;;7.63;7.03;;;12.60;99.90;;;;;;4900933;29;20200;-85
2022/11/15 11:33:34;;;;;;;6.83;6.23;;;12.60;99.90;;;;;;4901210;29;20215;-85
2022/11/15 11:36:12;;;;;;;14.77;13.73;;;12.60;99.90;;;;;;4899958;29;20204;-85
2022/11/15 11:38:50;;;;;;;5.70;5.10;;;12.60;99.90;;;;;;4894116;29;20236;-85
2022/11/15 11:41:28;;;;;;;6.53;5.93;;;12.70;99.90;;;;;;4899549;29;20680;-85
2022/11/15 11:44:06;;;;;;;5.67;5.17;;;12.80;99.90;;;;;;4899443;29;20690;-85
2022/11/15 11:46:46;;;;;;;5.20;4.70;;;12.80;99.90;;;;;;4904822;29;20265;-85
2022/11/15 11:49:21;;;;;;;5.33;4.37;;;12.80;99.90;;;;;;4897751;29;20204;-85
2022/11/15 11:51:52;;;;;;;5.07;4.57;;;12.90;99.90;;;;;;4900529;29;20650;-85
2022/11/15 11:54:24;;;;;;;4.97;4.03;;;13.00;99.90;;;;;;4901336;29;20233;-85
2022/11/15 11:56:53;;;;;;;4.10;3.80;;;13.10;99.90;;;;;;4904312;29;20206;-85
2022/11/15 11:59:29;;;;;;;5.00;4.60;;;13.10;99.90;;;;;;4899310;29;20213;-83
2022/11/15 12:01:57;;;;;;;6.03;5.43;;;13.10;99.90;;;;;;4899548;29;20213;-85
2022/11/15 12:04:31;;;;;;;5.07;4.67;;;13.20;99.90;;;;;;4899284;29;20224;-84
2022/11/15 12:07:02;;;;;;;6.93;6.33;;;13.10;99.90;;;;;;4900397;29;20205;-85
2022/11/15 12:09:34;;;;;;;7.30;6.70;;;13.10;99.90;;;;;;4900753;29;20308;-84
2022/11/15 12:12:08;;;;;;;5.07;4.57;;;13.10;99.90;;;;;;4900839;29;20205;-85
2022/11/15 12:14:43;;;;;;;7.77;7.07;;;13.00;99.90;;;;;;4894581;29;20231;-84
2022/11/15 12:17:11;;;;;;;5.67;5.13;;;13.00;99.90;;;;;;4900930;29;20212;-85
2022/11/15 12:19:42;;;;;;;5.77;5.27;;;13.00;99.90;;;;;;4900680;29;20617;-85
2022/11/15 12:22:17;;;;;;;4.13;3.73;;;13.10;99.90;;;;;;4899139;29;20207;-84
2022/11/15 12:24:49;;;;;;;7.97;7.27;;;13.10;99.90;;;;;;4898828;29;20239;-85
2022/11/15 12:27:20;;;;;;;6.53;5.97;;;13.10;99.90;;;;;;4899151;29;20205;-85
2022/11/15 12:29:51;;;;;;;10.00;9.20;;;13.10;99.90;;;;;;4899062;29;20216;-85
2022/11/15 12:32:29;;;;;;;11.63;10.83;;;13.00;99.90;;;;;;4899403;29;20209;-85
2022/11/15 12:34:58;;;;;;;12.23;11.33;;;13.00;99.90;;;;;;4900040;29;20220;-85
2022/11/15 12:37:55;;;;;;;12.10;11.30;;;13.10;99.90;;;;;;4899627;29;20212;-85
2022/11/15 12:40:34;;;;;;;12.57;11.77;;;13.10;99.90;;;;;;4899419;29;20681;-85
2022/11/15 12:43:25;;;;;;;12.50;11.70;;;13.10;99.90;;;;;;4898757;29;20204;-85
2022/11/15 12:45:52;;;;;;;12.10;11.30;;;13.10;99.90;;;;;;4905944;29;20232;-84
2022/11/15 12:48:58;;;;;;;12.77;11.93;;;13.20;99.90;;;;;;4898726;29;20590;-85
2022/11/15 12:52:00;;;;;;;12.63;11.73;;;13.20;99.90;;;;;;4899462;29;20204;-85
2022/11/15 12:55:04;;;;;;;8.20;6.37;;;13.20;99.90;;;;;;4893114;29;20223;-85
2022/11/15 12:57:40;;;;;;;8.67;6.50;;;13.20;99.90;;;;;;4891000;29;20213;-85
2022/11/15 13:00:44;;;;;;;8.37;7.57;;;13.30;99.90;;;;;;4898093;29;20321;-85
2022/11/15 13:03:29;;;;;;;13.67;12.70;;;13.40;99.90;;;;;;4895853;29;20200;-85
2022/11/15 13:06:13;;;;;;;7.50;6.10;;;13.40;99.90;;;;;;4909745;29;20606;-85
2022/11/15 13:08:44;;;;;;;6.00;5.00;;;13.40;99.90;;;;;;4908022;29;20219;-85
2022/11/15 13:11:47;;;;;;;5.63;4.13;;;13.50;99.90;;;;;;4898744;29;20260;-85
2022/11/15 13:14:41;;;;;;;8.40;7.80;;;13.50;99.90;;;;;;4911943;29;20255;-85
2022/11/15 13:17:34;;;;;;;11.10;10.20;;;13.50;99.90;;;;;;4895725;29;20228;-85
2022/11/15 13:20:19;;;;;;;4.63;4.23;;;13.50;99.90;;;;;;4910262;29;20280;-85
2022/11/15 13:22:51;;;;;;;5.87;5.37;;;13.50;99.90;;;;;;4892666;29;20295;-85
2022/11/15 13:25:28;;;;;;;8.63;7.93;;;13.60;99.90;;;;;;4897584;29;20213;-85
2022/11/15 13:27:57;;;;;;;10.20;9.30;;;13.60;99.90;;;;;;4897571;29;20216;-85
2022/11/15 13:30:28;;;;;;;6.03;5.30;;;13.60;99.90;;;;;;4896464;29;20214;-85
2022/11/15 13:32:55;;;;;;;6.90;6.40;;;13.60;99.90;;;;;;4898816;29;20204;-85
2022/11/15 13:35:25;;;;;;;9.70;8.90;;;13.60;99.90;;;;;;4897244;29;20214;-85
2022/11/15 13:37:54;;;;;;;12.87;12.07;;;13.60;99.90;;;;;;4898003;29;20216;-85
2022/11/15 13:40:24;;;;;;;8.43;7.67;;;13.60;99.90;;;;;;4897110;29;20622;-85
2022/11/15 13:42:51;;;;;;;7.03;6.43;;;13.50;99.90;;;;;;4897431;29;20219;-85
2022/11/15 13:45:20;;;;;;;11.97;11.07;;;13.40;99.90;;;;;;4898548;29;20223;-85
2022/11/15 13:47:55;;;;;;;12.87;11.97;;;13.30;99.90;;;;;;4897302;29;20202;-85
2022/11/15 13:50:26;;;;;;;12.27;11.27;;;13.20;99.90;;;;;;4897438;29;20264;-87
2022/11/15 13:53:07;;;;;;;11.73;11.03;;;13.10;99.90;;;;;;5140913;27;20703;-86
2022/11/15 13:55:34;;;;;;;12.83;11.93;;;13.00;99.90;;;;;;5153688;27;20289;-83
2022/11/15 13:58:05;;;;;;;12.10;11.20;;;13.00;99.90;;;;;;5148214;27;20223;-84
2022/11/15 14:00:39;;;;;;;11.80;11.00;;;12.90;99.90;;;;;;5128489;27;20291;-83
2022/11/15 14:03:20;;;;;;;11.70;10.90;;;12.90;99.90;;;;;;5133928;27;20194;-83
2022/11/15 14:06:03;;;;;;;11.80;11.00;;;12.90;99.90;;;;;;5142691;27;20211;-84
2022/11/15 14:08:32;;;;;;;11.93;11.23;;;12.80;99.90;;;;;;5135127;27;20225;-83
2022/11/15 14:11:16;;;;;;;12.47;11.63;;;12.80;99.90;;;;;;5142007;27;20228;-83
2022/11/15 14:13:59;;;;;;;13.17;12.03;;;12.70;99.90;;;;;;5127474;27;20679;-84
2022/11/15 14:16:35;;;;;;;12.83;11.90;;;12.70;99.90;;;;;;5150799;27;20195;-83
2022/11/15 14:19:02;;;;;;;13.30;12.37;;;12.70;99.90;;;;;;5146790;27;20204;-83
2022/11/15 14:21:29;;;;;;;12.57;11.77;;;12.70;99.90;;;;;;5151034;27;20177;-82
2022/11/15 14:24:18;;;;;;;12.87;11.97;;;12.70;99.90;;;;;;5150085;27;20207;-85
2022/11/15 14:26:48;;;;;;;12.80;11.90;;;12.70;99.90;;;;;;5145492;27;20252;-85
2022/11/15 14:29:25;;;;;;;13.20;12.20;;;12.60;99.90;;;;;;5159096;27;20191;-85
2022/11/15 14:31:52;;;;;;;12.70;11.80;;;12.60;99.90;;;;;;5155745;27;20230;-85
2022/11/15 14:34:21;;;;;;;13.40;12.40;;;12.60;99.90;;;;;;5149751;27;20197;-85
2022/11/15 14:36:48;;;;;;;13.97;12.87;;;12.60;99.90;;;;;;5159973;27;20178;-83
2022/11/15 14:39:15;;;;;;;15.67;14.13;;;12.50;99.90;;;;;;5154897;27;20208;-86
2022/11/15 14:41:44;;;;;;;14.77;13.50;;;12.50;99.90;;;;;;5147118;27;20197;-83
2022/11/15 14:44:11;;;;;;;14.13;13.07;;;12.40;99.90;;;;;;5147050;27;20238;-84
2022/11/15 14:46:38;;;;;;;14.17;13.13;;;12.40;99.90;;;;;;5161994;27;20189;-83
2022/11/15 14:49:05;;;;;;;13.80;12.80;;;12.30;99.90;;;;;;5150726;27;20227;-84
2022/11/15 14:51:33;;;;;;;14.80;13.60;;;12.30;99.90;;;;;;5154169;27;20212;-83
2022/11/15 14:54:00;;;;;;;14.30;13.30;;;12.30;99.90;;;;;;5149073;27;20230;-82
2022/11/15 14:56:26;;;;;;;14.10;13.10;;;12.20;99.90;;;;;;5149627;27;20312;-87
2022/11/15 14:58:55;;;;;;;14.17;13.17;;;12.20;99.90;;;;;;5140356;28;20209;-85
2022/11/15 15:01:25;;;;;;;14.40;13.30;;;12.20;99.90;;;;;;5145513;27;20197;-83
2022/11/15 15:03:55;;;;;;;15.53;14.13;;;12.20;99.90;;;;;;5123105;27;20240;-81
2022/11/15 15:06:22;;;;;;;15.77;14.50;;;12.10;99.90;;;;;;5127027;27;20212;-82
2022/11/15 15:08:50;;;;;;;15.60;14.30;;;12.10;99.90;;;;;;5108618;28;20231;-85
2022/11/15 15:11:21;;;;;;;15.23;14.20;;;12.00;99.90;;;;;;5111323;27;20221;-85
2022/11/15 15:13:48;;;;;;;15.67;14.47;;;12.00;99.90;;;;;;5129057;27;20196;-86
2022/11/15 15:16:17;;;;;;;15.00;13.93;;;11.90;99.90;;;;;;5119055;27;20201;-85
2022/11/15 15:18:44;;;;;;;14.77;13.77;;;11.80;99.90;;;;;;5120123;27;20198;-81
2022/11/15 15:21:21;;;;;;;15.17;13.93;;;11.80;99.90;;;;;;5121042;27;20288;-83
2022/11/15 15:23:48;;;;;;;15.67;14.57;;;11.70;99.90;;;;;;5112527;27;20213;-83
2022/11/15 15:26:15;;;;;;;16.60;15.20;;;11.60;99.90;;;;;;5101918;28;20199;-82
2022/11/15 15:28:45;;;;;;;16.93;15.63;;;11.60;99.90;;;;;;5099996;28;20265;-83
2022/11/15 15:31:12;;;;;;;17.07;15.73;;;11.50;99.90;;;;;;5104253;28;20716;-83
2022/11/15 15:33:43;;;;;;;17.00;15.70;;;11.50;99.90;;;;;;5098295;28;20688;-83
2022/11/15 15:36:12;;;;;;;17.60;16.20;;;11.40;99.90;;;;;;5111731;27;20623;-81
2022/11/15 15:38:40;;;;;;;16.70;15.30;;;11.40;99.90;;;;;;5122476;27;20198;-82
2022/11/15 15:41:11;;;;;;;17.53;16.13;;;11.40;99.90;;;;;;5120556;27;20195;-82
2022/11/15 15:43:38;;;;;;;18.13;16.57;;;11.30;99.90;;;;;;5122911;27;20198;-83
2022/11/15 15:46:08;;;;;;;17.83;16.47;;;11.30;99.90;;;;;;5107336;27;20290;-82
2022/11/15 15:48:37;;;;;;;18.50;17.10;;;11.30;99.90;;;;;;5106759;28;20194;-82
2022/11/15 15:51:05;;;;;;;17.57;16.07;;;11.20;99.90;;;;;;5107639;28;20219;-82
2022/11/15 15:53:32;;;;;;;16.87;15.67;;;11.20;99.90;;;;;;5112789;27;20246;-82
2022/11/15 15:55:59;;;;;;;17.33;16.03;;;11.20;99.90;;;;;;5115697;27;20199;-84
2022/11/15 15:58:26;;;;;;;17.30;16.00;;;11.20;99.90;;;;;;5119734;27;20607;-83
2022/11/15 16:00:53;;;;;;;16.70;15.40;;;11.10;99.90;;;;;;5130879;27;20429;-86
2022/11/15 16:03:20;;;;;;;16.97;15.57;;;11.10;99.90;;;;;;5118607;27;20198;-86
2022/11/15 16:05:47;;;;;;;16.93;15.63;;;11.10;99.90;;;;;;5128534;27;20212;-85
2022/11/15 16:08:20;;;;;;;16.40;15.20;;;11.10;99.90;;;;;;5125768;27;20583;-83
2022/11/15 16:10:48;;;;;;;17.37;15.97;;;11.10;99.90;;;;;;5119965;27;20199;-83
2022/11/15 16:13:14;;;;;;;16.50;15.30;;;11.00;99.90;;;;;;5136951;27;20229;-84
2022/11/15 16:15:45;;;;;;;16.57;15.37;;;11.00;99.90;;;;;;5120547;27;20212;-83
2022/11/15 16:18:16;;;;;;;17.40;15.90;;;11.00;99.90;;;;;;5129991;27;20216;-83
2022/11/15 16:20:45;;;;;;;17.00;15.70;;;11.00;99.90;;;;;;5125023;27;20576;-83
2022/11/15 16:23:13;;;;;;;16.73;15.53;;;11.00;99.90;;;;;;5137628;27;20196;-82
2022/11/15 16:25:45;;;;;;;11.73;10.63;;;11.00;99.90;;;;;;5117124;27;20758;-82
2022/11/15 16:28:18;;;;;;;9.87;8.80;;;11.00;99.90;;;;;;5116129;27;20206;-83
2022/11/15 16:30:45;;;;;;;8.27;7.40;;;11.00;99.90;;;;;;5128692;27;20204;-84
2022/11/15 16:33:12;;;;;;;7.40;6.70;;;11.00;99.90;;;;;;5116177;27;20210;-85
2022/11/15 16:35:39;;;;;;;7.70;6.73;;;11.00;99.90;;;;;;5122893;27;20699;-83
2022/11/15 16:38:06;;;;;;;9.33;8.50;;;11.10;99.90;;;;;;5115023;27;20203;-83
2022/11/15 16:40:47;;;;;;;7.90;7.17;;;11.10;99.90;;;;;;5099788;27;20199;-82
2022/11/15 16:43:18;;;;;;;12.60;11.70;;;11.20;99.90;;;;;;5104392;27;20720;-82
2022/11/15 16:48:39;;;;;;;15.33;14.40;;;11.20;99.90;;;;;;5103585;28;20207;-81
2022/11/15 16:55:42;;;;;;;15.40;13.97;;;11.30;99.90;;;;;;5362799;22;20361;-82
2022/11/15 16:58:10;;;;;;;15.17;14.17;;;11.40;99.90;;;;;;5065891;28;20195;-81
2022/11/15 17:00:41;;;;;;;14.87;13.77;;;11.40;99.90;;;;;;5076099;28;20207;-81